createdAt,value
2022-08-22T00:01:12.100Z,-11478.84
2022-08-22T00:03:07.477Z,-11489.72
2022-08-22T00:04:26.032Z,-11490.00
2022-08-22T00:07:46.874Z,-11487.47
2022-08-22T00:10:59.159Z,-11488.03
2022-08-22T00:14:21.017Z,-11485.91
2022-08-22T00:17:41.320Z,-11482.38
2022-08-22T00:20:52.903Z,-11481.81
2022-08-22T00:24:09.692Z,-11482.81
2022-08-22T00:27:21.372Z,-11481.25
2022-08-22T00:30:31.519Z,-11484.50
2022-08-22T00:33:46.912Z,-11487.19
2022-08-22T00:36:59.382Z,-11486.31
2022-08-22T00:40:21.549Z,-11490.00
2022-08-22T00:43:55.572Z,-11492.97
2022-08-22T00:47:41.238Z,-11489.16
2022-08-22T00:51:05.489Z,-11491.53
2022-08-22T00:54:21.401Z,-11489.44
2022-08-22T00:57:56.775Z,-11482.94
2022-08-22T01:01:08.068Z,-11481.53
2022-08-22T01:04:44.482Z,-11475.75
2022-08-22T01:08:09.648Z,-11474.19
2022-08-22T01:11:42.760Z,-11467.28
2022-08-22T01:14:53.682Z,-11440.34
2022-08-22T01:18:24.663Z,-11449.38
2022-08-22T01:22:21.332Z,-11457.97
2022-08-22T01:26:01.983Z,-11471.53
2022-08-22T01:29:46.832Z,-11453.03
2022-08-22T01:33:31.000Z,-11453.19
2022-08-22T01:37:11.060Z,-11456.16
2022-08-22T01:40:53.634Z,-11454.59
2022-08-22T01:44:20.679Z,-11456.56
2022-08-22T01:47:36.585Z,-11452.63
2022-08-22T01:50:50.504Z,-11454.47
2022-08-22T01:54:04.300Z,-11455.59
2022-08-22T01:57:12.352Z,-11458.81
2022-08-22T02:00:35.119Z,-11469.81
2022-08-22T02:03:54.649Z,-11467.56
2022-08-22T02:07:08.206Z,-11463.75
2022-08-22T02:10:23.129Z,-11472.78
2022-08-22T02:13:46.491Z,-11470.94
2022-08-22T02:16:58.519Z,-11471.94
2022-08-22T02:20:11.679Z,-11463.63
2022-08-22T02:23:24.665Z,-11458.81
2022-08-22T02:26:45.399Z,-11462.34
2022-08-22T02:30:00.331Z,-11469.97
2022-08-22T02:33:13.346Z,-11466.88
2022-08-22T02:36:27.183Z,-11458.97
2022-08-22T02:39:38.798Z,-11452.91
2022-08-22T02:42:51.726Z,-11447.81
2022-08-22T02:46:05.307Z,-11441.19
2022-08-22T02:49:20.042Z,-11440.78
2022-08-22T02:52:35.431Z,-11453.91
2022-08-22T02:55:49.373Z,-11445.16
2022-08-22T02:59:00.371Z,-11444.59
2022-08-22T03:02:35.404Z,-11451.34
2022-08-22T03:05:52.740Z,-11440.34
2022-08-22T03:09:09.352Z,-11436.84
2022-08-22T03:12:26.115Z,-11428.53
2022-08-22T03:15:40.696Z,-11428.81
2022-08-22T03:19:00.790Z,-11448.94
2022-08-22T03:22:15.162Z,-11435.69
2022-08-22T03:25:31.099Z,-11444.59
2022-08-22T03:28:52.684Z,-11434.56
2022-08-22T03:32:12.626Z,-11443.47
2022-08-22T03:35:27.583Z,-11431.34
2022-08-22T03:38:50.123Z,-11439.78
2022-08-22T03:42:26.302Z,-11447.97
2022-08-22T03:45:57.974Z,-11447.69
2022-08-22T03:49:40.171Z,-11448.66
2022-08-22T03:53:23.366Z,-11453.75
2022-08-22T03:57:01.688Z,-11455.88
2022-08-22T04:00:20.371Z,-11453.91
2022-08-22T04:03:57.371Z,-11458.41
2022-08-22T04:07:42.978Z,-11451.22
2022-08-22T04:11:31.516Z,-11455.03
2022-08-22T04:15:21.388Z,-11452.47
2022-08-22T04:19:05.914Z,-11452.91
2022-08-22T04:23:04.704Z,-11457.69
2022-08-22T04:26:17.430Z,-11457.69
2022-08-22T04:29:34.509Z,-11459.81
2022-08-22T04:32:46.290Z,-11449.09
2022-08-22T04:36:03.443Z,-11461.94
2022-08-22T04:39:18.576Z,-11459.41
2022-08-22T04:42:33.677Z,-11453.03
2022-08-22T04:45:46.451Z,-11439.50
2022-08-22T04:48:57.105Z,-11448.38
2022-08-22T04:52:29.476Z,-11453.34
2022-08-22T04:55:44.687Z,-11459.81
2022-08-22T04:59:00.287Z,-11464.75
2022-08-22T05:02:11.730Z,-11467.84
2022-08-22T05:05:23.422Z,-11449.53
2022-08-22T05:08:35.475Z,-11455.31
2022-08-22T05:11:43.482Z,-11455.16
2022-08-22T05:14:56.560Z,-11451.34
2022-08-22T05:18:08.775Z,-11453.34
2022-08-22T05:21:19.663Z,-11452.06
2022-08-22T05:24:31.794Z,-11452.19
2022-08-22T05:27:43.487Z,-11445.00
2022-08-22T05:30:52.432Z,-11448.81
2022-08-22T05:34:04.894Z,-11444.03
2022-08-22T05:37:15.775Z,-11460.38
2022-08-22T05:40:25.035Z,-11462.91
2022-08-22T05:43:34.571Z,-11443.19
2022-08-22T05:46:48.025Z,-11471.37
2022-08-22T05:50:02.010Z,-11460.66
2022-08-22T05:53:12.392Z,-11444.31
2022-08-22T05:56:31.164Z,-11456.16
2022-08-22T05:59:42.460Z,-11478.16
2022-08-22T06:03:07.044Z,-11479.13
2022-08-22T06:06:18.440Z,-11482.25
2022-08-22T06:09:35.519Z,-11481.38
2022-08-22T06:12:46.811Z,-11483.09
2022-08-22T06:16:00.725Z,-11478.28
2022-08-22T06:19:18.997Z,-11473.63
2022-08-22T06:22:29.808Z,-11476.59
2022-08-22T06:25:40.055Z,-11488.03
2022-08-22T06:28:54.991Z,-11486.31
2022-08-22T06:32:08.747Z,-11487.19
2022-08-22T06:35:23.591Z,-11493.53
2022-08-22T06:38:35.740Z,-11488.44
2022-08-22T06:41:52.516Z,-11490.00
2022-08-22T06:45:02.229Z,-11500.16
2022-08-22T06:48:17.507Z,-11523.28
2022-08-22T06:51:27.891Z,-11514.25
2022-08-22T06:54:37.947Z,-11527.38
2022-08-22T06:57:50.616Z,-11512.97
2022-08-22T07:01:11.455Z,-11516.22
2022-08-22T07:04:21.397Z,-11492.25
2022-08-22T07:07:29.966Z,-11497.03
2022-08-22T07:10:37.186Z,-11512.56
2022-08-22T07:13:50.645Z,-11514.53
2022-08-22T07:16:59.970Z,-11511.16
2022-08-22T07:20:18.274Z,-11503.13
2022-08-22T07:23:36.214Z,-11509.19
2022-08-22T07:26:52.271Z,-11513.41
2022-08-22T07:30:09.911Z,-11514.81
2022-08-22T07:33:29.852Z,-11491.13
2022-08-22T07:36:45.168Z,-11495.63
2022-08-22T07:39:57.096Z,-11525.25
2022-08-22T07:43:13.548Z,-11510.88
2022-08-22T07:46:30.082Z,-11504.94
2022-08-22T07:49:40.331Z,-11517.63
2022-08-22T07:53:01.958Z,-11507.91
2022-08-22T07:56:16.697Z,-11516.38
2022-08-22T07:59:34.555Z,-11516.50
2022-08-22T08:02:47.945Z,-11538.81
2022-08-22T08:05:55.390Z,-11525.53
2022-08-22T08:09:03.778Z,-11513.28
2022-08-22T08:12:13.298Z,-11533.16
2022-08-22T08:15:21.963Z,-11543.31
2022-08-22T08:18:32.170Z,-11535.41
2022-08-22T08:21:41.778Z,-11514.13
2022-08-22T08:24:50.857Z,-11538.25
2022-08-22T08:28:18.277Z,-11530.06
2022-08-22T08:31:28.773Z,-11556.16
2022-08-22T08:34:35.683Z,-11576.63
2022-08-22T08:37:46.255Z,-11598.94
2022-08-22T08:41:20.842Z,-11602.59
2022-08-22T08:45:09.194Z,-11591.31
2022-08-22T08:48:42.825Z,-11584.53
2022-08-22T08:52:32.668Z,-11593.56
2022-08-22T08:55:51.309Z,-11578.88
2022-08-22T08:59:09.984Z,-11598.38
2022-08-22T09:02:36.859Z,-11599.50
2022-08-22T09:05:57.227Z,-11605.28
2022-08-22T09:09:25.979Z,-11601.75
2022-08-22T09:13:12.205Z,-11614.31
2022-08-22T09:16:45.567Z,-11609.94
2022-08-22T09:20:21.817Z,-11615.16
2022-08-22T09:24:23.402Z,-11616.56
2022-08-22T09:27:35.855Z,-11601.75
2022-08-22T09:31:21.936Z,-11615.44
2022-08-22T09:34:42.348Z,-11588.78
2022-08-22T09:38:10.467Z,-11601.34
2022-08-22T09:41:30.715Z,-11584.25
2022-08-22T09:44:48.576Z,-11586.09
2022-08-22T09:48:07.203Z,-11592.56
2022-08-22T09:51:31.681Z,-11580.56
2022-08-22T09:54:47.511Z,-11582.00
2022-08-22T09:58:03.109Z,-11581.00
2022-08-22T10:01:23.660Z,-11575.63
2022-08-22T10:04:48.072Z,-11577.19
2022-08-22T10:08:11.315Z,-11577.75
2022-08-22T10:11:28.824Z,-11587.22
2022-08-22T10:14:51.165Z,-11592.44
2022-08-22T10:18:10.618Z,-11587.63
2022-08-22T10:21:25.415Z,-11583.13
2022-08-22T10:24:43.727Z,-11580.00
2022-08-22T10:28:10.614Z,-11591.59
2022-08-22T10:31:25.126Z,-11587.63
2022-08-22T10:34:37.695Z,-11589.63
2022-08-22T10:37:54.764Z,-11584.81
2022-08-22T10:41:09.654Z,-11585.38
2022-08-22T10:44:20.859Z,-11591.88
2022-08-22T10:47:35.761Z,-11587.63
2022-08-22T10:50:46.535Z,-11599.50
2022-08-22T10:54:03.232Z,-11613.91
2022-08-22T10:57:27.666Z,-11620.66
2022-08-22T11:00:49.761Z,-11617.00
2022-08-22T11:04:06.380Z,-11618.97
2022-08-22T11:07:34.191Z,-11632.37
2022-08-22T11:10:59.259Z,-11631.25
2022-08-22T11:14:48.043Z,-11625.75
2022-08-22T11:18:18.736Z,-11624.47
2022-08-22T11:21:32.915Z,-11625.47
2022-08-22T11:25:36.129Z,-11613.63
2022-08-22T11:29:13.199Z,-11621.81
2022-08-22T11:32:30.507Z,-11611.63
2022-08-22T11:35:43.631Z,-11609.66
2022-08-22T11:39:06.531Z,-11604.28
2022-08-22T11:42:23.187Z,-11609.66
2022-08-22T11:45:36.641Z,-11606.69
2022-08-22T11:48:57.068Z,-11591.16
2022-08-22T11:52:25.540Z,-11615.59
2022-08-22T11:55:38.199Z,-11612.19
2022-08-22T11:58:54.906Z,-11620.53
2022-08-22T12:02:05.962Z,-11619.81
2022-08-22T12:05:26.493Z,-11612.47
2022-08-22T12:09:14.700Z,-11613.63
2022-08-22T12:12:36.085Z,-11609.53
2022-08-22T12:15:54.022Z,-11625.19
2022-08-22T12:19:11.271Z,-11612.63
2022-08-22T12:22:55.056Z,-11613.34
2022-08-22T12:26:12.695Z,-11614.75
2022-08-22T12:29:44.936Z,-11615.88
2022-08-22T12:33:22.939Z,-11619.97
2022-08-22T12:36:56.103Z,-11604.16
2022-08-22T12:40:29.685Z,-11601.91
2022-08-22T12:43:54.995Z,-11579.44
2022-08-22T12:47:17.646Z,-11554.06
2022-08-22T12:50:34.835Z,-11534.28
2022-08-22T12:54:26.113Z,-11543.88
2022-08-22T12:57:50.570Z,-11539.38
2022-08-22T13:01:16.056Z,-11528.78
2022-08-22T13:04:33.392Z,-11524.13
2022-08-22T13:08:17.589Z,-11523.84
2022-08-22T13:11:42.463Z,-11526.66
2022-08-22T13:15:25.114Z,-11528.66
2022-08-22T13:18:44.820Z,-11521.31
2022-08-22T13:22:14.502Z,-11523.84
2022-08-22T13:25:28.897Z,-11530.91
2022-08-22T13:28:41.579Z,-11543.59
2022-08-22T13:32:01.435Z,-11550.66
2022-08-22T13:35:24.654Z,-11553.75
2022-08-22T13:38:56.266Z,-11565.91
2022-08-22T13:42:20.287Z,-11558.00
2022-08-22T13:45:46.923Z,-11564.22
2022-08-22T13:49:10.873Z,-11561.09
2022-08-22T13:52:30.632Z,-11553.75
2022-08-22T13:55:54.108Z,-11549.25
2022-08-22T13:59:04.730Z,-11570.97
2022-08-22T14:02:18.658Z,-11560.97
2022-08-22T14:05:29.910Z,-11575.50
2022-08-22T14:08:45.255Z,-11569.00
2022-08-22T14:11:57.099Z,-11589.63
2022-08-22T14:15:07.967Z,-11591.44
2022-08-22T14:18:30.069Z,-11597.22
2022-08-22T14:21:44.530Z,-11591.59
2022-08-22T14:24:56.732Z,-11600.34
2022-08-22T14:28:09.316Z,-11606.84
2022-08-22T14:31:23.273Z,-11614.19
2022-08-22T14:34:33.238Z,-11604.00
2022-08-22T14:37:43.559Z,-11610.66
2022-08-22T14:40:58.229Z,-11621.66
2022-08-22T14:44:13.051Z,-11614.59
2022-08-22T14:47:43.242Z,-11612.47
2022-08-22T14:50:58.037Z,-11612.75
2022-08-22T14:54:14.080Z,-11600.91
2022-08-22T14:57:29.295Z,-11607.81
2022-08-22T15:00:38.422Z,-11612.06
2022-08-22T15:03:52.414Z,-11613.03
2022-08-22T15:07:02.391Z,-11608.66
2022-08-22T15:10:20.706Z,-11619.53
2022-08-22T15:13:29.712Z,-11605.84
2022-08-22T15:16:40.411Z,-11603.44
2022-08-22T15:19:52.146Z,-11620.38
2022-08-22T15:23:03.288Z,-11616.84
2022-08-22T15:26:26.694Z,-11619.53
2022-08-22T15:29:46.605Z,-11607.69
2022-08-22T15:32:53.407Z,-11607.41
2022-08-22T15:36:11.310Z,-11605.72
2022-08-22T15:39:32.239Z,-11600.47
2022-08-22T15:42:44.610Z,-11608.09
2022-08-22T15:46:09.931Z,-11607.41
2022-08-22T15:49:30.690Z,-11607.69
2022-08-22T15:53:11.755Z,-11605.13
2022-08-22T15:56:28.216Z,-11606.00
2022-08-22T15:59:47.923Z,-11579.16
2022-08-22T16:03:08.475Z,-11595.53
2022-08-22T16:06:15.881Z,-11596.81
2022-08-22T16:09:40.456Z,-11585.38
2022-08-22T16:13:12.119Z,-11585.09
2022-08-22T16:16:57.658Z,-11578.31
2022-08-22T16:20:41.462Z,-11580.84
2022-08-22T16:24:25.272Z,-11599.22
2022-08-22T16:27:34.270Z,-11594.13
2022-08-22T16:30:40.700Z,-11594.13
2022-08-22T16:33:47.844Z,-11591.88
2022-08-22T16:37:42.299Z,-11584.38
2022-08-22T16:40:49.506Z,-11581.72
2022-08-22T16:44:18.415Z,-11587.63
2022-08-22T16:47:41.736Z,-11578.88
2022-08-22T16:51:03.372Z,-11575.06
2022-08-22T16:54:12.961Z,-11579.16
2022-08-22T16:57:25.823Z,-11574.09
2022-08-22T17:00:43.754Z,-11572.41
2022-08-22T17:04:00.944Z,-11568.44
2022-08-22T17:07:24.998Z,-11567.19
2022-08-22T17:10:57.251Z,-11562.94
2022-08-22T17:14:21.123Z,-11565.47
2022-08-22T17:17:44.342Z,-11561.81
2022-08-22T17:21:04.602Z,-11554.91
2022-08-22T17:24:33.792Z,-11547.13
2022-08-22T17:27:42.264Z,-11550.94
2022-08-22T17:30:58.984Z,-11544.44
2022-08-22T17:34:25.473Z,-11543.19
2022-08-22T17:37:42.268Z,-11545.00
2022-08-22T17:41:01.121Z,-11538.25
2022-08-22T17:44:19.167Z,-11535.00
2022-08-22T17:47:33.307Z,-11535.41
2022-08-22T17:50:47.459Z,-11533.44
2022-08-22T17:53:58.483Z,-11539.09
2022-08-22T17:57:11.701Z,-11526.81
2022-08-22T18:00:25.715Z,-11524.28
2022-08-22T18:03:36.597Z,-11530.75
2022-08-22T18:06:56.246Z,-11524.13
2022-08-22T18:10:09.161Z,-11523.00
2022-08-22T18:13:22.814Z,-11516.50
2022-08-22T18:16:33.964Z,-11522.31
2022-08-22T18:19:46.767Z,-11517.34
2022-08-22T18:22:58.172Z,-11518.91
2022-08-22T18:26:15.850Z,-11514.81
2022-08-22T18:29:25.958Z,-11519.63
2022-08-22T18:32:38.408Z,-11513.97
2022-08-22T18:35:53.779Z,-11504.38
2022-08-22T18:39:07.479Z,-11512.84
2022-08-22T18:42:25.598Z,-11515.81
2022-08-22T18:46:03.296Z,-11504.38
2022-08-22T18:49:30.007Z,-11513.56
2022-08-22T18:52:39.796Z,-11505.22
2022-08-22T18:59:57.530Z,-11510.44
2022-08-22T19:03:42.881Z,-11515.38
2022-08-22T19:07:04.897Z,-11518.78
2022-08-22T19:10:35.143Z,-11519.63
2022-08-22T19:14:12.224Z,-11520.19
2022-08-22T19:17:46.404Z,-11517.50
2022-08-22T19:21:43.341Z,-11516.50
2022-08-22T19:25:14.563Z,-11516.22
2022-08-22T19:28:27.098Z,-11511.72
2022-08-22T19:31:48.866Z,-11504.66
2022-08-22T19:35:19.726Z,-11498.75
2022-08-22T19:39:00.215Z,-11501.28
2022-08-22T19:42:10.793Z,-11499.59
2022-08-22T19:45:25.850Z,-11501.69
2022-08-22T19:48:44.663Z,-11504.81
2022-08-22T19:52:04.639Z,-11492.13
2022-08-22T19:55:19.014Z,-11483.09
2022-08-22T19:58:33.914Z,-11492.13
2022-08-22T20:01:56.548Z,-11497.19
2022-08-22T20:05:28.929Z,-11498.44
2022-08-22T20:09:01.688Z,-11492.41
2022-08-22T20:12:16.499Z,-11496.75
2022-08-22T20:15:26.833Z,-11496.47
2022-08-22T20:19:05.162Z,-11493.53
2022-08-22T20:22:19.380Z,-11494.22
2022-08-22T20:25:42.162Z,-11485.75
2022-08-22T20:28:52.538Z,-11481.53
2022-08-22T20:32:00.047Z,-11488.72
2022-08-22T20:35:07.684Z,-11487.88
2022-08-22T20:38:18.078Z,-11493.66
2022-08-22T20:41:27.938Z,-11482.53
2022-08-22T20:44:41.263Z,-11481.25
2022-08-22T20:47:50.961Z,-11472.50
2022-08-22T20:51:04.786Z,-11485.06
2022-08-22T20:54:20.123Z,-11479.84
2022-08-22T20:57:26.427Z,-11482.66
2022-08-22T21:00:36.984Z,-11485.63
2022-08-22T21:03:47.375Z,-11490.28
2022-08-22T21:07:00.913Z,-11484.63
2022-08-22T21:10:37.099Z,-11472.50
2022-08-22T21:13:43.834Z,-11482.66
2022-08-22T21:16:50.638Z,-11471.37
2022-08-22T21:19:59.043Z,-11477.88
2022-08-22T21:23:09.012Z,-11465.88
2022-08-22T21:26:23.725Z,-11457.56
2022-08-22T21:29:32.778Z,-11474.63
2022-08-22T21:32:44.723Z,-11483.78
2022-08-22T21:35:57.163Z,-11479.00
2022-08-22T21:39:13.658Z,-11460.25
2022-08-22T21:42:26.901Z,-11447.13
2022-08-22T21:45:37.066Z,-11435.84
2022-08-22T21:48:56.424Z,-11457.84
2022-08-22T21:52:03.331Z,-11468.84
2022-08-22T21:55:18.102Z,-11474.47
2022-08-22T21:58:36.593Z,-11473.34
2022-08-22T22:01:43.706Z,-11473.06
2022-08-22T22:04:52.318Z,-11477.88
2022-08-22T22:08:01.337Z,-11482.53
2022-08-22T22:11:13.280Z,-11470.94
2022-08-22T22:14:21.223Z,-11472.09
2022-08-22T22:17:27.491Z,-11474.47
2022-08-22T22:20:34.046Z,-11463.47
2022-08-22T22:23:40.614Z,-11470.53
2022-08-22T22:26:46.699Z,-11475.34
2022-08-22T22:29:54.387Z,-11467.44
2022-08-22T22:33:00.443Z,-11466.72
2022-08-22T22:36:09.179Z,-11468.00
2022-08-22T22:39:15.604Z,-11475.34
2022-08-22T22:42:24.074Z,-11470.25
2022-08-22T22:45:31.876Z,-11474.75
2022-08-22T22:48:38.288Z,-11475.06
2022-08-22T22:51:44.470Z,-11480.41
2022-08-22T22:54:52.679Z,-11481.25
2022-08-22T22:57:59.562Z,-11480.25
2022-08-22T23:01:11.182Z,-11482.66
2022-08-22T23:04:18.119Z,-11480.69
2022-08-22T23:07:26.879Z,-11485.19
2022-08-22T23:10:34.590Z,-11481.97
2022-08-22T23:13:43.021Z,-11475.06
2022-08-22T23:16:50.789Z,-11473.22
2022-08-22T23:19:56.983Z,-11467.16
2022-08-22T23:23:03.409Z,-11472.78
2022-08-22T23:26:10.388Z,-11470.66
2022-08-22T23:29:16.672Z,-11471.81
2022-08-22T23:32:24.427Z,-11482.94
2022-08-22T23:35:30.862Z,-11477.44
2022-08-22T23:38:37.027Z,-11472.09
2022-08-22T23:41:44.002Z,-11485.63
2022-08-22T23:44:52.736Z,-11474.34
2022-08-22T23:48:00.878Z,-11483.09
2022-08-22T23:51:08.316Z,-11476.88
2022-08-22T23:54:15.098Z,-11468.28
2022-08-22T23:57:26.341Z,-11453.91
